createdAt,value
2023-01-19T00:00:09.702Z,13.98
2023-01-19T00:02:51.626Z,15.60
2023-01-19T00:05:40.667Z,14.25
2023-01-19T00:08:24.038Z,16.40
2023-01-19T00:11:12.673Z,16.27
2023-01-19T00:14:07.717Z,14.32
2023-01-19T00:16:49.482Z,15.52
2023-01-19T00:19:39.663Z,17.15
2023-01-19T00:22:21.754Z,15.35
2023-01-19T00:25:11.668Z,19.48
2023-01-19T00:27:53.606Z,15.35
2023-01-19T00:30:42.646Z,19.63
2023-01-19T00:33:24.555Z,16.35
2023-01-19T00:36:13.710Z,14.75
2023-01-19T00:38:55.593Z,19.15
2023-01-19T00:42:02.767Z,15.60
2023-01-19T00:44:51.663Z,15.50
2023-01-19T00:47:33.864Z,15.55
2023-01-19T00:50:23.678Z,19.60
2023-01-19T00:53:06.907Z,15.80
2023-01-19T00:55:54.667Z,14.77
2023-01-19T00:58:37.912Z,15.85
2023-01-19T01:01:46.043Z,14.68
2023-01-19T01:04:27.828Z,17.75
2023-01-19T01:07:16.676Z,16.63
2023-01-19T01:09:58.878Z,14.88
2023-01-19T01:12:40.664Z,17.48
2023-01-19T01:15:30.759Z,15.48
2023-01-19T01:18:12.847Z,15.85
2023-01-19T01:21:00.652Z,15.40
2023-01-19T01:23:42.910Z,17.40
2023-01-19T01:26:31.678Z,16.73
2023-01-19T01:29:13.955Z,16.35
2023-01-19T01:32:03.668Z,17.17
2023-01-19T01:34:45.955Z,17.73
2023-01-19T01:37:33.666Z,16.75
2023-01-19T01:40:17.941Z,21.08
2023-01-19T01:43:06.686Z,16.35
2023-01-19T01:45:56.716Z,15.13
2023-01-19T01:48:41.410Z,15.88
2023-01-19T01:51:35.733Z,19.17
2023-01-19T01:54:22.540Z,13.82
2023-01-19T01:57:18.672Z,13.93
2023-01-19T02:00:00.803Z,18.70
2023-01-19T02:03:07.746Z,18.70
2023-01-19T02:05:52.087Z,16.33
2023-01-19T02:09:04.689Z,21.75
2023-01-19T02:12:10.784Z,15.43
2023-01-19T02:14:52.889Z,16.23
2023-01-19T02:17:41.667Z,18.13
2023-01-19T02:20:24.946Z,16.95
2023-01-19T02:23:21.927Z,16.85
2023-01-19T02:26:07.307Z,16.63
2023-01-19T02:31:40.845Z,14.80
2023-01-19T02:34:30.705Z,16.45
2023-01-19T02:37:18.873Z,15.18
2023-01-19T02:40:10.748Z,17.98
2023-01-19T02:43:04.714Z,18.15
2023-01-19T02:45:48.229Z,14.80
2023-01-19T02:48:36.695Z,16.33
2023-01-19T02:51:22.224Z,19.02
2023-01-19T02:54:52.770Z,20.42
2023-01-19T02:57:49.073Z,17.77
2023-01-19T03:00:48.734Z,18.45
2023-01-19T03:03:36.105Z,19.25
2023-01-19T03:06:33.695Z,18.08
2023-01-19T03:09:41.679Z,14.40
2023-01-19T03:12:32.416Z,23.15
2023-01-19T03:15:30.764Z,19.80
2023-01-19T03:18:15.884Z,16.02
2023-01-19T03:23:48.927Z,17.58
2023-01-19T03:26:42.761Z,17.42
2023-01-19T03:29:28.763Z,17.20
2023-01-19T03:32:22.798Z,16.02
2023-01-19T03:35:17.719Z,16.23
2023-01-19T03:38:03.910Z,15.30
2023-01-19T03:40:53.688Z,17.73
2023-01-19T03:43:37.876Z,16.77
2023-01-19T03:46:28.797Z,20.05
2023-01-19T03:49:12.916Z,18.38
2023-01-19T03:52:05.765Z,17.10
2023-01-19T03:54:48.203Z,16.55
2023-01-19T03:57:36.692Z,15.63
2023-01-19T04:00:19.919Z,15.57
2023-01-19T04:03:08.743Z,22.48
2023-01-19T04:05:58.751Z,16.70
2023-01-19T04:08:46.894Z,16.67
2023-01-19T04:11:28.753Z,16.20
2023-01-19T04:14:10.665Z,18.33
2023-01-19T04:16:59.706Z,20.70
2023-01-19T04:19:41.638Z,18.30
2023-01-19T04:22:31.718Z,18.60
2023-01-19T04:25:13.533Z,15.50
2023-01-19T04:28:01.753Z,23.20
2023-01-19T04:30:43.680Z,22.08
2023-01-19T04:33:32.765Z,19.92
2023-01-19T04:36:20.840Z,18.70
2023-01-19T04:39:05.047Z,16.35
2023-01-19T04:41:52.766Z,23.65
2023-01-19T04:44:34.892Z,22.73
2023-01-19T04:47:23.703Z,19.63
2023-01-19T04:50:06.979Z,21.58
2023-01-19T04:52:55.764Z,23.92
2023-01-19T04:55:39.059Z,21.92
2023-01-19T04:58:26.719Z,23.13
2023-01-19T05:01:15.843Z,26.90
2023-01-19T05:04:00.913Z,24.55
2023-01-19T05:06:49.725Z,25.45
2023-01-19T05:09:37.881Z,22.98
2023-01-19T05:12:22.372Z,22.40
2023-01-19T05:15:03.745Z,23.77
2023-01-19T05:17:52.727Z,25.33
2023-01-19T05:20:34.586Z,31.75
2023-01-19T05:23:23.721Z,27.67
2023-01-19T05:26:06.092Z,21.92
2023-01-19T05:28:56.728Z,30.05
2023-01-19T05:34:26.958Z,23.58
2023-01-19T05:37:14.773Z,28.85
2023-01-19T05:39:56.962Z,36.00
2023-01-19T05:42:45.805Z,26.40
2023-01-19T05:45:28.979Z,32.60
2023-01-19T05:48:17.831Z,30.88
2023-01-19T05:51:05.110Z,35.60
2023-01-19T05:53:52.837Z,26.17
2023-01-19T05:56:35.564Z,22.98
2023-01-19T05:59:27.793Z,36.35
2023-01-19T06:02:17.788Z,28.75
2023-01-19T06:04:59.730Z,52.83
2023-01-19T06:07:48.747Z,32.08
2023-01-19T06:10:30.592Z,24.02
2023-01-19T06:13:19.870Z,42.75
2023-01-19T06:16:02.742Z,43.45
2023-01-19T06:18:52.727Z,27.85
2023-01-19T06:21:35.514Z,34.50
2023-01-19T06:24:24.740Z,31.15
2023-01-19T06:27:12.736Z,38.35
2023-01-19T06:29:56.926Z,44.13
2023-01-19T06:32:44.758Z,27.67
2023-01-19T06:35:28.129Z,22.27
2023-01-19T06:38:16.734Z,26.90
2023-01-19T06:41:04.879Z,23.92
2023-01-19T06:43:52.841Z,23.17
2023-01-19T06:46:35.830Z,22.50
2023-01-19T06:49:23.742Z,24.75
2023-01-19T06:52:13.751Z,23.30
2023-01-19T06:55:01.988Z,25.98
2023-01-19T06:57:44.795Z,28.63
2023-01-19T07:00:27.561Z,24.17
2023-01-19T07:03:15.799Z,22.27
2023-01-19T07:05:57.850Z,27.77
2023-01-19T07:08:48.795Z,21.52
2023-01-19T07:11:32.650Z,23.10
2023-01-19T07:14:21.817Z,26.60
2023-01-19T07:17:03.593Z,23.27
2023-01-19T07:19:52.786Z,28.70
2023-01-19T07:22:34.683Z,24.67
2023-01-19T07:25:24.743Z,23.55
2023-01-19T07:28:12.755Z,24.60
2023-01-19T07:30:59.565Z,25.13
2023-01-19T07:33:47.764Z,24.38
2023-01-19T07:36:29.989Z,27.13
2023-01-19T07:39:18.742Z,28.13
2023-01-19T07:42:01.970Z,24.63
2023-01-19T07:44:50.889Z,29.17
2023-01-19T07:47:32.947Z,29.50
2023-01-19T07:50:21.020Z,27.08
2023-01-19T07:53:09.750Z,27.20
2023-01-19T07:55:56.472Z,27.35
2023-01-19T07:58:45.755Z,26.33
2023-01-19T08:01:27.873Z,21.45
2023-01-19T08:04:16.886Z,24.10
2023-01-19T08:06:58.768Z,24.50
2023-01-19T08:09:47.906Z,22.52
2023-01-19T08:12:29.768Z,25.20
2023-01-19T08:15:23.007Z,25.15
2023-01-19T08:18:06.860Z,26.17
2023-01-19T08:20:55.830Z,32.08
2023-01-19T08:23:43.822Z,24.70
2023-01-19T08:26:27.568Z,29.13
2023-01-19T08:29:14.872Z,28.17
2023-01-19T08:32:00.170Z,26.10
2023-01-19T08:37:29.989Z,22.55
2023-01-19T08:40:19.820Z,24.48
2023-01-19T08:43:05.803Z,26.75
2023-01-19T08:45:58.825Z,29.27
2023-01-19T08:48:49.779Z,23.73
2023-01-19T08:54:19.846Z,24.15
2023-01-19T08:57:01.840Z,24.25
2023-01-19T08:59:50.778Z,25.75
2023-01-19T09:02:32.814Z,25.38
2023-01-19T09:05:23.780Z,27.88
2023-01-19T09:08:08.263Z,29.08
2023-01-19T09:11:00.788Z,27.33
2023-01-19T09:13:43.006Z,28.02
2023-01-19T09:16:33.789Z,20.92
2023-01-19T09:22:05.883Z,22.35
2023-01-19T09:24:53.826Z,21.98
2023-01-19T09:27:36.087Z,27.73
2023-01-19T09:30:25.881Z,24.85
2023-01-19T09:33:11.260Z,27.20
2023-01-19T09:35:59.868Z,23.52
2023-01-19T09:38:46.182Z,26.17
2023-01-19T09:41:34.865Z,26.13
2023-01-19T09:44:32.796Z,24.02
2023-01-19T09:47:16.480Z,26.83
2023-01-19T09:50:10.960Z,24.02
2023-01-19T09:53:01.485Z,27.45
2023-01-19T09:58:33.832Z,19.50
2023-01-19T10:01:34.844Z,26.08
2023-01-19T10:04:37.599Z,23.08
2023-01-19T10:07:46.827Z,22.13
2023-01-19T10:10:36.849Z,28.38
2023-01-19T10:13:33.110Z,22.10
2023-01-19T10:16:33.801Z,26.90
2023-01-19T10:19:28.578Z,25.77
2023-01-19T10:22:29.901Z,25.73
2023-01-19T10:25:23.695Z,20.92
2023-01-19T10:28:12.861Z,24.60
2023-01-19T10:30:56.083Z,27.98
2023-01-19T10:33:45.832Z,25.40
2023-01-19T10:36:34.072Z,20.73
2023-01-19T10:39:25.867Z,22.20
2023-01-19T10:42:16.884Z,20.52
2023-01-19T10:47:50.917Z,22.02
2023-01-19T10:50:34.891Z,20.58
2023-01-19T10:53:36.803Z,21.60
2023-01-19T10:56:27.220Z,24.40
2023-01-19T10:59:16.897Z,28.10
2023-01-19T11:02:17.114Z,22.10
2023-01-19T11:05:08.815Z,21.83
2023-01-19T11:08:03.898Z,19.20
2023-01-19T11:10:54.109Z,19.85
2023-01-19T11:13:42.823Z,25.15
2023-01-19T11:16:28.771Z,26.42
2023-01-19T11:19:17.895Z,20.70
2023-01-19T11:22:21.543Z,26.98
2023-01-19T11:25:13.923Z,25.45
2023-01-19T11:27:55.930Z,21.02
2023-01-19T11:30:44.851Z,23.33
2023-01-19T11:33:33.861Z,27.50
2023-01-19T11:36:30.906Z,22.30
2023-01-19T11:39:35.866Z,27.67
2023-01-19T11:42:20.075Z,21.92
2023-01-19T11:45:13.925Z,19.95
2023-01-19T11:47:59.548Z,23.55
2023-01-19T11:50:51.805Z,19.48
2023-01-19T11:53:40.108Z,31.52
2023-01-19T11:56:34.863Z,25.02
2023-01-19T11:59:20.112Z,21.23
2023-01-19T12:02:12.875Z,22.30
2023-01-19T12:05:03.879Z,18.40
2023-01-19T12:10:51.868Z,18.98
2023-01-19T12:13:36.049Z,22.77
2023-01-19T12:16:27.840Z,15.70
2023-01-19T12:19:14.066Z,20.40
2023-01-19T12:22:02.833Z,22.35
2023-01-19T12:24:49.134Z,21.60
2023-01-19T12:27:47.831Z,19.95
2023-01-19T12:30:35.088Z,22.40
2023-01-19T12:34:03.043Z,19.30
2023-01-19T12:36:52.839Z,17.85
2023-01-19T12:39:35.917Z,20.42
2023-01-19T12:42:29.868Z,21.08
2023-01-19T12:45:16.544Z,20.00
2023-01-19T12:48:09.832Z,22.10
2023-01-19T12:50:51.861Z,19.17
2023-01-19T12:53:40.867Z,18.42
2023-01-19T12:56:33.478Z,17.30
2023-01-19T12:59:33.851Z,16.38
2023-01-19T13:02:50.944Z,18.55
2023-01-19T13:05:56.103Z,23.58
2023-01-19T13:09:13.950Z,18.98
2023-01-19T13:12:20.167Z,20.60
2023-01-19T13:15:42.878Z,19.48
2023-01-19T13:18:26.418Z,22.08
2023-01-19T13:21:18.881Z,19.10
2023-01-19T13:24:02.245Z,19.70
2023-01-19T13:26:52.877Z,17.38
2023-01-19T13:29:37.196Z,20.45
2023-01-19T13:32:31.853Z,19.65
2023-01-19T13:35:18.496Z,17.05
2023-01-19T13:38:08.919Z,14.60
2023-01-19T13:43:43.866Z,21.90
2023-01-19T13:46:32.876Z,16.48
2023-01-19T13:49:25.054Z,15.38
2023-01-19T13:52:20.961Z,14.90
2023-01-19T13:55:06.338Z,18.75
2023-01-19T13:57:55.901Z,15.73
2023-01-19T14:00:38.564Z,14.10
2023-01-19T14:03:30.878Z,14.63
2023-01-19T14:06:13.114Z,17.63
2023-01-19T14:09:23.951Z,12.45
2023-01-19T14:12:24.851Z,18.60
2023-01-19T14:15:13.962Z,18.80
2023-01-19T14:18:33.881Z,16.45
2023-01-19T14:21:18.619Z,14.02
2023-01-19T14:24:22.039Z,18.98
2023-01-19T14:27:20.441Z,18.42
2023-01-19T14:30:09.069Z,17.25
2023-01-19T14:32:50.905Z,16.98
2023-01-19T14:35:41.890Z,19.55
2023-01-19T14:41:11.996Z,16.88
2023-01-19T14:44:08.903Z,16.50
2023-01-19T14:49:45.873Z,17.40
2023-01-19T14:52:30.415Z,15.48
2023-01-19T14:55:19.974Z,17.90
2023-01-19T14:58:01.981Z,15.20
2023-01-19T15:00:52.029Z,13.98
2023-01-19T15:03:49.311Z,16.52
2023-01-19T15:06:39.886Z,13.65
2023-01-19T15:09:35.958Z,18.58
2023-01-19T15:12:20.718Z,13.23
2023-01-19T15:15:10.112Z,16.85
2023-01-19T15:17:56.142Z,19.13
2023-01-19T15:20:45.007Z,14.73
2023-01-19T15:23:26.976Z,18.08
2023-01-19T15:26:17.943Z,19.75
2023-01-19T15:31:47.957Z,18.15
2023-01-19T15:34:31.245Z,15.85
2023-01-19T15:37:19.908Z,19.92
2023-01-19T15:40:07.896Z,22.63
2023-01-19T15:42:51.080Z,18.25
2023-01-19T15:45:43.933Z,19.48
2023-01-19T15:48:26.153Z,20.65
2023-01-19T15:51:19.901Z,18.02
2023-01-19T15:54:03.138Z,20.95
2023-01-19T15:56:51.984Z,19.10
2023-01-19T15:59:34.132Z,18.45
2023-01-19T16:02:22.200Z,18.27
2023-01-19T16:05:11.205Z,21.52
2023-01-19T16:07:54.968Z,16.73
2023-01-19T16:10:43.924Z,17.10
2023-01-19T16:13:25.905Z,16.75
2023-01-19T16:16:17.921Z,17.92
2023-01-19T16:18:59.782Z,18.92
2023-01-19T16:21:48.893Z,18.25
2023-01-19T16:24:32.328Z,17.20
2023-01-19T16:27:21.038Z,17.52
2023-01-19T16:30:15.939Z,17.67
2023-01-19T16:32:57.901Z,20.25
2023-01-19T16:35:47.046Z,17.65
2023-01-19T16:38:28.909Z,14.63
2023-01-19T16:41:18.908Z,14.20
2023-01-19T16:44:01.077Z,21.40
2023-01-19T16:46:50.985Z,17.13
2023-01-19T16:49:33.548Z,16.95
2023-01-19T16:52:22.129Z,19.42
2023-01-19T16:55:08.831Z,17.27
2023-01-19T16:57:58.919Z,16.83
2023-01-19T17:00:46.976Z,15.95
2023-01-19T17:03:29.145Z,17.70
2023-01-19T17:06:18.905Z,15.88
2023-01-19T17:09:01.303Z,19.67
2023-01-19T17:11:49.954Z,17.77
2023-01-19T17:14:33.413Z,17.02
2023-01-19T17:17:22.271Z,16.90
2023-01-19T17:20:04.553Z,18.85
2023-01-19T17:22:51.953Z,19.55
2023-01-19T17:25:34.175Z,18.33
2023-01-19T17:28:22.970Z,20.80
2023-01-19T17:31:19.151Z,20.65
2023-01-19T17:34:01.750Z,23.67
2023-01-19T17:36:51.008Z,30.48
2023-01-19T17:39:33.011Z,29.75
2023-01-19T17:42:22.054Z,21.50
2023-01-19T17:45:05.604Z,21.20
2023-01-19T17:47:54.924Z,21.63
2023-01-19T17:50:36.876Z,19.92
2023-01-19T17:53:25.983Z,20.77
2023-01-19T17:56:16.920Z,18.55
2023-01-19T17:58:59.120Z,22.05
2023-01-19T18:01:48.215Z,21.30
2023-01-19T18:04:32.255Z,16.55
2023-01-19T18:07:21.066Z,18.92
2023-01-19T18:10:16.108Z,20.52
2023-01-19T18:13:04.005Z,20.25
2023-01-19T18:15:46.405Z,23.77
2023-01-19T18:18:34.971Z,21.20
2023-01-19T18:21:26.989Z,17.90
2023-01-19T18:24:09.257Z,23.17
2023-01-19T18:26:57.930Z,22.65
2023-01-19T18:29:39.945Z,21.00
2023-01-19T18:32:28.942Z,22.38
2023-01-19T18:35:14.107Z,22.48
2023-01-19T18:38:04.989Z,22.17
2023-01-19T18:40:46.980Z,21.83
2023-01-19T18:43:35.940Z,22.00
2023-01-19T18:46:18.064Z,26.50
2023-01-19T18:49:07.027Z,20.95
2023-01-19T18:51:55.985Z,21.67
2023-01-19T18:54:39.322Z,20.52
2023-01-19T18:57:27.941Z,24.35
2023-01-19T19:00:11.530Z,22.35
2023-01-19T19:02:59.963Z,26.48
2023-01-19T19:05:42.215Z,20.70
2023-01-19T19:08:32.046Z,24.58
2023-01-19T19:11:22.439Z,29.75
2023-01-19T19:14:06.060Z,24.10
2023-01-19T19:17:00.952Z,22.88
2023-01-19T19:19:42.944Z,27.13
2023-01-19T19:22:31.975Z,34.35
2023-01-19T19:25:13.921Z,22.15
2023-01-19T19:28:06.960Z,28.88
2023-01-19T19:30:52.597Z,29.05
2023-01-19T19:36:24.266Z,25.42
2023-01-19T19:39:15.125Z,24.45
2023-01-19T19:44:55.204Z,29.95
2023-01-19T19:47:44.087Z,27.77
2023-01-19T19:50:28.585Z,25.90
2023-01-19T19:53:17.187Z,26.30
2023-01-19T19:56:00.231Z,27.95
2023-01-19T19:58:51.970Z,29.88
2023-01-19T20:01:36.042Z,26.63
2023-01-19T20:04:29.034Z,28.90
2023-01-19T20:07:18.966Z,24.80
2023-01-19T20:10:14.246Z,27.63
2023-01-19T20:13:03.052Z,32.15
2023-01-19T20:15:45.408Z,29.58
2023-01-19T20:18:34.964Z,30.58
2023-01-19T20:21:21.362Z,28.48
2023-01-19T20:24:13.977Z,29.48
2023-01-19T20:26:58.212Z,36.80
2023-01-19T20:29:51.431Z,26.95
2023-01-19T20:32:39.987Z,29.42
2023-01-19T20:35:23.583Z,29.33
2023-01-19T20:38:11.973Z,36.00
2023-01-19T20:40:54.836Z,31.05
2023-01-19T20:43:44.027Z,28.75
2023-01-19T20:46:25.910Z,29.95
2023-01-19T20:49:15.009Z,27.02
2023-01-19T20:51:58.491Z,27.20
2023-01-19T20:54:48.072Z,30.95
2023-01-19T20:57:42.973Z,28.50
2023-01-19T21:00:26.738Z,33.38
2023-01-19T21:03:16.068Z,31.15
2023-01-19T21:05:59.553Z,33.42
2023-01-19T21:08:49.988Z,26.52
2023-01-19T21:14:23.038Z,29.08
2023-01-19T21:17:04.940Z,34.60
2023-01-19T21:19:53.976Z,30.88
2023-01-19T21:22:49.055Z,34.65
2023-01-19T21:25:32.394Z,33.10
2023-01-19T21:28:21.041Z,29.75
2023-01-19T21:31:08.260Z,33.90
2023-01-19T21:34:00.039Z,30.42
2023-01-19T21:36:41.948Z,32.30
2023-01-19T21:39:33.866Z,31.30
2023-01-19T21:42:17.399Z,27.20
2023-01-19T21:45:05.987Z,32.50
2023-01-19T21:48:03.993Z,30.75
2023-01-19T21:50:45.976Z,32.95
2023-01-19T21:53:35.014Z,39.28
2023-01-19T21:56:17.738Z,31.92
2023-01-19T21:59:09.195Z,32.83
2023-01-19T22:01:51.136Z,33.17
2023-01-19T22:04:40.056Z,30.85
2023-01-19T22:07:21.997Z,32.50
2023-01-19T22:10:11.003Z,29.90
2023-01-19T22:12:52.913Z,30.20
2023-01-19T22:15:43.002Z,30.67
2023-01-19T22:18:30.990Z,31.83
2023-01-19T22:21:17.301Z,31.70
2023-01-19T22:24:07.020Z,28.95
2023-01-19T22:26:49.210Z,35.03
2023-01-19T22:29:37.009Z,30.77
2023-01-19T22:32:20.178Z,26.85
2023-01-19T22:35:09.028Z,28.92
2023-01-19T22:37:51.258Z,27.00
2023-01-19T22:40:39.977Z,27.65
2023-01-19T22:43:29.047Z,26.50
2023-01-19T22:46:11.085Z,29.17
2023-01-19T22:49:01.085Z,28.85
2023-01-19T22:51:43.233Z,29.15
2023-01-19T22:54:32.046Z,29.58
2023-01-19T22:57:13.961Z,34.97
2023-01-19T23:00:03.039Z,34.17
2023-01-19T23:02:44.913Z,28.48
2023-01-19T23:05:35.021Z,26.98
2023-01-19T23:08:16.964Z,28.00
2023-01-19T23:11:06.002Z,31.65
2023-01-19T23:13:55.064Z,24.52
2023-01-19T23:16:37.270Z,25.73
2023-01-19T23:19:25.983Z,25.83
2023-01-19T23:22:09.281Z,26.63
2023-01-19T23:24:58.007Z,22.38
2023-01-19T23:27:40.245Z,23.02
2023-01-19T23:30:32.085Z,21.40
2023-01-19T23:33:14.163Z,21.20
2023-01-19T23:36:03.033Z,23.98
2023-01-19T23:38:50.267Z,24.10
2023-01-19T23:41:42.035Z,25.77
2023-01-19T23:44:31.040Z,27.85
2023-01-19T23:47:12.990Z,30.83
2023-01-19T23:50:02.115Z,30.10
2023-01-19T23:52:44.005Z,26.50
2023-01-19T23:55:34.065Z,30.30
2023-01-19T23:58:16.262Z,29.83
